createdAt,value
2019-05-15T00:00:40.164Z,100426.70
2019-05-15T00:05:00.556Z,100420.81
2019-05-15T00:09:21.581Z,100416.44
2019-05-15T00:13:41.694Z,100415.98
2019-05-15T00:18:01.949Z,100403.00
2019-05-15T00:22:22.743Z,100415.20
2019-05-15T00:26:43.560Z,100412.68
2019-05-15T00:31:04.120Z,100411.56
2019-05-15T00:35:27.917Z,100406.77
2019-05-15T00:39:48.585Z,100399.00
2019-05-15T00:44:09.389Z,100398.47
2019-05-15T00:48:29.676Z,100397.27
2019-05-15T00:52:49.833Z,100402.95
2019-05-15T00:57:10.582Z,100401.20
2019-05-15T01:01:31.458Z,100396.97
2019-05-15T01:05:52.090Z,100387.70
2019-05-15T01:10:12.463Z,100385.86
2019-05-15T01:14:33.128Z,100385.08
2019-05-15T01:18:54.532Z,100379.77
2019-05-15T01:23:15.363Z,100367.93
2019-05-15T01:27:38.284Z,100373.73
2019-05-15T01:31:59.277Z,100370.67
2019-05-15T01:36:20.289Z,100368.33
2019-05-15T01:40:41.413Z,100358.22
2019-05-15T01:45:01.821Z,100352.77
2019-05-15T01:49:23.031Z,100355.47
2019-05-15T01:53:44.023Z,100352.04
2019-05-15T01:58:04.225Z,100346.33
2019-05-15T02:02:24.768Z,100346.07
2019-05-15T02:06:48.078Z,100346.09
2019-05-15T02:11:09.170Z,100346.15
2019-05-15T02:15:30.115Z,100340.86
2019-05-15T02:19:50.728Z,100344.45
2019-05-15T02:24:11.365Z,100341.11
2019-05-15T02:28:31.966Z,100343.48
2019-05-15T02:32:52.174Z,100341.72
2019-05-15T02:37:13.115Z,100338.60
2019-05-15T02:41:33.858Z,100349.28
2019-05-15T02:45:54.736Z,100338.85
2019-05-15T02:50:15.530Z,100336.59
2019-05-15T02:54:36.374Z,100335.15
2019-05-15T02:58:59.944Z,100331.60
2019-05-15T03:03:20.692Z,100330.48
2019-05-15T03:07:41.275Z,100329.45
2019-05-15T03:12:02.020Z,100325.74
2019-05-15T03:16:22.187Z,100338.91
2019-05-15T03:20:42.507Z,100337.88
2019-05-15T03:25:03.649Z,100344.38
2019-05-15T03:29:23.984Z,100346.08
2019-05-15T03:33:46.667Z,100356.58
2019-05-15T03:38:09.315Z,100354.31
2019-05-15T03:42:29.572Z,100351.33
2019-05-15T03:46:50.150Z,100355.34
2019-05-15T03:51:10.868Z,100354.45
2019-05-15T03:55:31.066Z,100360.70
2019-05-15T03:59:51.643Z,100361.45
2019-05-15T04:04:13.281Z,100355.33
2019-05-15T04:08:33.858Z,100354.27
2019-05-15T04:12:54.600Z,100359.17
2019-05-15T04:17:15.180Z,100359.01
2019-05-15T04:21:41.228Z,100360.33
2019-05-15T04:26:01.089Z,100364.12
2019-05-15T04:30:21.694Z,100354.82
2019-05-15T04:34:42.371Z,100354.82
2019-05-15T04:39:05.193Z,100352.98
2019-05-15T04:43:29.169Z,100352.65
2019-05-15T04:47:49.831Z,100350.44
2019-05-15T04:52:10.840Z,100346.48
2019-05-15T04:56:32.637Z,100342.31
2019-05-15T05:00:55.114Z,100347.52
2019-05-15T05:05:15.300Z,100353.62
2019-05-15T05:09:38.768Z,100347.83
2019-05-15T05:13:59.226Z,100343.74
2019-05-15T05:18:19.931Z,100336.45
2019-05-15T05:22:40.611Z,100331.23
2019-05-15T05:27:01.613Z,100339.87
2019-05-15T05:31:21.906Z,100338.78
2019-05-15T05:35:42.398Z,100333.16
2019-05-15T05:40:02.939Z,100334.53
2019-05-15T05:44:23.734Z,100341.73
2019-05-15T05:48:44.207Z,100330.58
2019-05-15T05:53:05.544Z,100331.23
2019-05-15T05:57:27.992Z,100334.61
2019-05-15T06:01:48.668Z,100327.52
2019-05-15T06:06:09.700Z,100329.21
2019-05-15T06:10:31.122Z,100344.45
2019-05-15T06:14:51.724Z,100339.55
2019-05-15T06:19:12.637Z,100339.55
2019-05-15T06:23:35.597Z,100345.83
2019-05-15T06:27:58.213Z,100348.09
2019-05-15T06:32:19.518Z,100349.67
2019-05-15T06:36:40.799Z,100346.26
2019-05-15T06:41:01.771Z,100342.74
2019-05-15T06:45:24.611Z,100342.74
2019-05-15T06:49:45.752Z,100344.56
2019-05-15T06:54:08.566Z,100343.65
2019-05-15T06:58:29.346Z,100331.93
2019-05-15T07:02:50.292Z,100339.75
2019-05-15T07:07:11.266Z,100339.75
2019-05-15T07:11:31.779Z,100331.18
2019-05-15T07:15:52.274Z,100326.69
2019-05-15T07:20:14.560Z,100331.48
2019-05-15T07:24:35.721Z,100327.90
2019-05-15T07:28:56.169Z,100327.90
2019-05-15T07:33:20.271Z,100327.02
2019-05-15T07:37:39.618Z,100304.52
2019-05-15T07:42:02.021Z,100318.99
2019-05-15T07:46:22.443Z,100314.55
2019-05-15T07:50:43.111Z,100314.73
2019-05-15T07:55:04.453Z,100312.22
2019-05-15T07:59:25.177Z,100315.30
2019-05-15T08:03:56.635Z,100306.88
2019-05-15T08:08:09.060Z,100293.58
2019-05-15T08:12:29.886Z,100289.22
2019-05-15T08:16:51.017Z,100284.58
2019-05-15T08:21:11.766Z,100286.98
2019-05-15T08:25:35.423Z,100285.02
2019-05-15T08:29:54.692Z,100276.02
2019-05-15T08:34:16.486Z,100274.56
2019-05-15T08:38:38.718Z,100276.67
2019-05-15T08:43:02.182Z,100268.20
2019-05-15T08:47:21.684Z,100256.98
2019-05-15T08:51:42.203Z,100247.97
2019-05-15T08:56:02.924Z,100240.77
2019-05-15T09:00:24.187Z,100238.94
2019-05-15T09:04:45.155Z,100238.94
2019-05-15T09:09:09.363Z,100239.23
2019-05-15T09:13:29.428Z,100222.33
2019-05-15T09:17:50.292Z,100212.44
2019-05-15T09:22:11.052Z,100215.67
2019-05-15T09:26:35.437Z,100212.14
2019-05-15T09:30:59.141Z,100213.78
2019-05-15T09:35:19.576Z,100209.93
2019-05-15T09:39:40.376Z,100209.39
2019-05-15T09:44:01.367Z,100195.80
2019-05-15T09:48:22.128Z,100207.28
2019-05-15T09:52:42.637Z,100188.88
2019-05-15T09:57:03.351Z,100188.81
2019-05-15T10:01:23.875Z,100190.86
2019-05-15T10:05:44.873Z,100185.50
2019-05-15T10:10:08.556Z,100184.46
2019-05-15T10:14:29.602Z,100182.70
2019-05-15T10:18:51.345Z,100184.32
2019-05-15T10:23:11.947Z,100171.48
2019-05-15T10:27:32.984Z,100174.88
2019-05-15T10:31:53.831Z,100160.23
2019-05-15T10:36:14.740Z,100163.10
2019-05-15T10:40:39.520Z,100157.12
2019-05-15T10:45:01.199Z,100147.25
2019-05-15T10:49:21.507Z,100144.84
2019-05-15T10:53:43.197Z,100146.45
2019-05-15T10:58:03.900Z,100140.05
2019-05-15T11:02:24.284Z,100137.44
2019-05-15T11:06:45.347Z,100128.12
2019-05-15T11:11:08.924Z,100136.99
2019-05-15T11:15:29.073Z,100111.49
2019-05-15T11:19:50.325Z,100107.06
2019-05-15T11:24:10.690Z,100114.81
2019-05-15T11:28:32.484Z,100093.67
2019-05-15T11:32:53.210Z,100102.27
2019-05-15T11:37:13.386Z,100085.86
2019-05-15T11:41:34.545Z,100086.30
2019-05-15T11:45:58.835Z,100092.84
2019-05-15T11:50:20.415Z,100082.88
2019-05-15T11:54:41.454Z,100070.39
2019-05-15T11:59:08.533Z,100077.56
2019-05-15T12:03:38.742Z,100070.40
2019-05-15T12:08:05.381Z,100067.02
2019-05-15T12:12:32.101Z,100053.94
2019-05-15T12:17:05.028Z,100060.30
2019-05-15T12:21:21.268Z,100053.09
2019-05-15T12:25:48.853Z,100047.41
2019-05-15T12:30:14.647Z,100054.95
2019-05-15T12:34:39.513Z,100052.55
2019-05-15T12:39:10.605Z,100049.31
2019-05-15T13:01:17.744Z,100034.30
2019-05-15T13:05:41.102Z,100036.35
2019-05-15T13:10:08.612Z,100031.66
2019-05-15T13:14:32.183Z,100017.77
2019-05-15T13:18:58.980Z,100023.16
2019-05-15T13:23:28.571Z,100017.82
2019-05-15T13:27:49.147Z,100012.48
2019-05-15T13:32:09.705Z,100004.06
2019-05-15T13:36:30.403Z,100000.82
2019-05-15T13:40:51.235Z,100007.67
2019-05-15T13:45:13.376Z,99998.65
2019-05-15T13:49:34.827Z,99995.41
2019-05-15T13:53:55.557Z,99991.64
2019-05-15T13:58:16.505Z,99987.63
2019-05-15T14:02:38.732Z,99982.44
2019-05-15T14:06:59.383Z,99973.31
2019-05-15T14:11:21.906Z,99977.63
2019-05-15T14:15:44.065Z,99971.92
2019-05-15T14:20:09.149Z,99978.16
2019-05-15T14:24:29.533Z,99976.38
2019-05-15T14:28:50.295Z,99967.43
2019-05-15T14:33:11.017Z,99972.66
2019-05-15T14:37:32.179Z,99966.88
2019-05-15T14:41:53.169Z,99963.80
2019-05-15T14:46:13.603Z,99955.47
2019-05-15T14:50:34.044Z,99954.97
2019-05-15T14:54:54.939Z,99949.88
2019-05-15T14:59:15.424Z,99943.66
2019-05-15T15:03:38.014Z,99951.84
2019-05-15T15:07:58.904Z,99948.84
2019-05-15T15:12:19.887Z,99925.38
2019-05-15T15:16:40.058Z,99933.81
2019-05-15T15:21:01.326Z,99932.38
2019-05-15T15:25:21.942Z,99926.41
2019-05-15T15:29:43.223Z,99920.88
2019-05-15T15:34:03.733Z,99931.59
2019-05-15T15:38:37.550Z,99934.14
2019-05-15T15:42:48.528Z,99918.92
2019-05-15T15:47:09.623Z,99917.98
2019-05-15T15:51:30.553Z,99927.25
2019-05-15T15:55:50.876Z,99926.20
2019-05-15T16:00:13.058Z,99905.81
2019-05-15T16:04:33.689Z,99908.45
2019-05-15T16:08:55.902Z,99914.55
2019-05-15T16:13:18.685Z,99912.44
2019-05-15T16:17:39.036Z,99912.06
2019-05-15T16:21:59.748Z,99901.58
2019-05-15T16:26:21.230Z,99905.87
2019-05-15T16:30:51.085Z,99903.59
2019-05-15T16:35:03.801Z,99891.66
2019-05-15T16:39:25.120Z,99893.44
2019-05-15T16:43:45.938Z,99896.50
2019-05-15T16:48:09.237Z,99890.41
2019-05-15T16:52:30.953Z,99895.91
2019-05-15T16:56:52.394Z,99898.14
2019-05-15T17:05:34.015Z,99893.73
2019-05-15T17:09:54.730Z,99892.73
2019-05-15T17:14:15.547Z,99893.44
2019-05-15T17:18:38.153Z,99887.64
2019-05-15T17:22:59.356Z,99890.61
2019-05-15T17:27:20.796Z,99888.35
2019-05-15T17:31:41.325Z,99891.33
2019-05-15T17:36:01.722Z,99886.20
2019-05-15T17:40:22.595Z,99887.61
2019-05-15T17:44:43.313Z,99889.65
2019-05-15T17:49:08.183Z,99882.25
2019-05-15T17:53:28.674Z,99897.83
2019-05-15T17:57:56.673Z,99899.94
2019-05-15T18:02:12.819Z,99896.99
2019-05-15T18:06:33.589Z,99890.09
2019-05-15T18:10:54.839Z,99893.28
2019-05-15T18:15:15.334Z,99888.11
2019-05-15T18:19:37.942Z,99889.06
2019-05-15T18:23:58.737Z,99896.48
2019-05-15T18:28:19.241Z,99897.44
2019-05-15T18:32:40.139Z,99891.08
2019-05-15T18:37:01.065Z,99901.63
2019-05-15T18:41:21.703Z,99893.59
2019-05-15T18:45:42.587Z,99890.14
2019-05-15T18:50:06.147Z,99897.03
2019-05-15T18:54:28.057Z,99901.41
2019-05-15T18:58:48.922Z,99898.98
2019-05-15T19:03:19.521Z,99892.95
2019-05-15T19:07:32.945Z,99903.81
2019-05-15T19:11:54.034Z,99935.28
2019-05-15T19:16:14.398Z,99904.28
2019-05-15T19:20:35.472Z,99904.28
2019-05-15T19:24:58.310Z,99902.32
2019-05-15T19:29:18.567Z,99899.41
2019-05-15T19:33:41.172Z,99885.77
2019-05-15T19:38:02.285Z,99893.94
2019-05-15T19:42:23.663Z,99900.39
2019-05-15T19:46:43.540Z,99897.00
2019-05-15T19:51:04.804Z,99903.83
2019-05-15T19:55:25.645Z,99904.72
2019-05-15T19:59:48.853Z,99886.46
2019-05-15T20:04:09.285Z,99891.91
2019-05-15T20:08:30.914Z,99881.69
2019-05-15T20:12:52.619Z,99877.15
2019-05-15T20:17:14.381Z,99876.34
2019-05-15T20:21:35.401Z,99878.14
2019-05-15T20:25:57.675Z,99889.56
2019-05-15T20:30:18.548Z,99881.85
2019-05-15T20:34:39.442Z,99883.85
2019-05-15T20:39:00.075Z,99880.20
2019-05-15T20:43:20.723Z,99881.23
2019-05-15T20:47:41.325Z,99881.32
2019-05-15T20:52:02.088Z,99879.44
2019-05-15T20:56:23.216Z,99881.59
2019-05-15T21:00:44.272Z,99875.38
2019-05-15T21:05:05.156Z,99875.14
2019-05-15T21:09:30.837Z,99875.76
2019-05-15T21:13:52.367Z,99867.69
2019-05-15T21:18:15.951Z,99867.69
2019-05-15T21:22:36.114Z,99872.06
2019-05-15T21:26:58.153Z,99857.88
2019-05-15T21:31:22.119Z,99857.88
2019-05-15T21:35:42.859Z,99871.67
2019-05-15T21:40:04.652Z,99873.30
2019-05-15T21:44:25.449Z,99873.30
2019-05-15T21:48:48.556Z,99867.95
2019-05-15T21:53:09.493Z,99865.92
2019-05-15T21:57:36.275Z,99868.30
2019-05-15T22:01:52.093Z,99872.00
2019-05-15T22:06:12.811Z,99872.00
2019-05-15T22:10:33.657Z,99867.27
2019-05-15T22:14:54.019Z,99867.14
2019-05-15T22:19:14.758Z,99855.91
2019-05-15T22:23:35.426Z,99855.91
2019-05-15T22:27:57.893Z,99853.61
2019-05-15T22:32:18.731Z,99840.31
2019-05-15T22:36:40.428Z,99838.83
2019-05-15T22:41:00.860Z,99836.34
2019-05-15T22:45:21.050Z,99836.34
2019-05-15T22:49:42.040Z,99819.31
2019-05-15T22:54:02.447Z,99821.77
2019-05-15T22:58:22.818Z,99820.73
2019-05-15T23:02:43.007Z,99819.08
2019-05-15T23:07:03.953Z,99813.49
2019-05-15T23:11:24.774Z,99808.22
2019-05-15T23:15:47.611Z,99809.77
2019-05-15T23:20:08.861Z,99809.77
2019-05-15T23:24:29.678Z,99807.70
2019-05-15T23:28:50.035Z,99801.83
2019-05-15T23:33:10.371Z,99795.91
2019-05-15T23:37:30.737Z,99793.67
2019-05-15T23:41:51.269Z,99791.73
2019-05-15T23:46:11.673Z,99792.03
2019-05-15T23:50:31.882Z,99786.72
2019-05-15T23:54:52.602Z,99782.41
2019-05-15T23:59:12.978Z,99777.73
